createdAt,value
2023-04-21T00:02:03.260Z,2.75
2023-04-21T00:05:12.714Z,2.90
2023-04-21T00:08:17.649Z,2.77
2023-04-21T00:11:22.579Z,2.80
2023-04-21T00:14:26.038Z,2.80
2023-04-21T00:17:29.402Z,2.50
2023-04-21T00:20:33.261Z,2.95
2023-04-21T00:23:36.545Z,2.80
2023-04-21T00:26:39.741Z,2.92
2023-04-21T00:29:43.910Z,3.50
2023-04-21T00:32:48.423Z,2.60
2023-04-21T00:35:51.841Z,2.47
2023-04-21T00:38:56.605Z,2.57
2023-04-21T00:42:00.057Z,1.98
2023-04-21T00:45:08.089Z,2.00
2023-04-21T00:48:12.032Z,2.20
2023-04-21T00:51:15.599Z,2.28
2023-04-21T00:54:23.455Z,2.40
2023-04-21T00:57:28.521Z,2.05
2023-04-21T01:00:32.822Z,2.58
2023-04-21T01:03:36.725Z,1.83
2023-04-21T01:06:41.020Z,2.33
2023-04-21T01:09:44.295Z,2.27
2023-04-21T01:12:48.193Z,2.20
2023-04-21T01:15:51.408Z,1.75
2023-04-21T01:18:55.194Z,1.80
2023-04-21T01:22:00.669Z,2.03
2023-04-21T01:25:07.271Z,2.33
2023-04-21T01:28:10.772Z,2.38
2023-04-21T01:31:17.051Z,1.80
2023-04-21T01:34:21.293Z,2.00
2023-04-21T01:37:29.014Z,1.70
2023-04-21T01:40:32.215Z,2.23
2023-04-21T01:43:38.167Z,2.50
2023-04-21T01:46:41.347Z,2.70
2023-04-21T01:49:44.721Z,2.95
2023-04-21T01:52:49.092Z,2.83
2023-04-21T01:55:52.415Z,2.80
2023-04-21T01:58:56.050Z,3.00
2023-04-21T02:02:00.185Z,2.42
2023-04-21T02:05:03.748Z,2.38
2023-04-21T02:08:07.017Z,2.35
2023-04-21T02:11:10.481Z,2.20
2023-04-21T02:14:16.942Z,2.53
2023-04-21T02:17:20.166Z,2.15
2023-04-21T02:20:23.551Z,2.13
2023-04-21T02:23:26.774Z,2.27
2023-04-21T02:26:31.642Z,2.17
2023-04-21T02:29:36.949Z,2.30
2023-04-21T02:32:40.543Z,2.20
2023-04-21T02:35:43.842Z,2.10
2023-04-21T02:38:47.102Z,2.70
2023-04-21T02:41:50.499Z,1.83
2023-04-21T02:44:53.729Z,2.42
2023-04-21T02:47:59.842Z,2.20
2023-04-21T02:51:04.374Z,2.27
2023-04-21T02:54:08.146Z,2.10
2023-04-21T02:57:11.360Z,2.60
2023-04-21T03:00:16.349Z,2.30
2023-04-21T03:03:20.174Z,1.92
2023-04-21T03:06:23.656Z,2.10
2023-04-21T03:09:26.973Z,1.88
2023-04-21T03:12:30.174Z,2.22
2023-04-21T03:15:34.155Z,2.03
2023-04-21T03:18:38.180Z,2.40
2023-04-21T03:21:41.894Z,2.65
2023-04-21T03:24:45.985Z,2.25
2023-04-21T03:27:49.626Z,2.88
2023-04-21T03:30:52.888Z,2.67
2023-04-21T03:33:56.162Z,2.30
2023-04-21T03:36:59.519Z,2.13
2023-04-21T03:40:03.435Z,2.35
2023-04-21T03:43:06.996Z,1.95
2023-04-21T03:46:21.954Z,1.67
2023-04-21T03:49:25.462Z,1.70
2023-04-21T03:52:28.781Z,1.85
2023-04-21T03:55:32.032Z,2.25
2023-04-21T03:58:36.409Z,2.00
2023-04-21T04:01:39.624Z,1.98
2023-04-21T04:04:43.102Z,1.90
2023-04-21T04:07:46.388Z,2.17
2023-04-21T04:10:49.837Z,2.50
2023-04-21T04:13:53.236Z,2.40
2023-04-21T04:16:56.519Z,2.60
2023-04-21T04:19:59.743Z,2.63
2023-04-21T04:23:03.040Z,2.50
2023-04-21T04:26:06.351Z,2.67
2023-04-21T04:29:10.793Z,2.45
2023-04-21T04:32:15.272Z,2.30
2023-04-21T04:35:19.427Z,2.38
2023-04-21T04:38:23.156Z,3.50
2023-04-21T04:41:26.376Z,2.28
2023-04-21T04:44:29.919Z,2.25
2023-04-21T04:47:36.644Z,2.35
2023-04-21T04:50:39.999Z,2.88
2023-04-21T04:53:43.472Z,2.77
2023-04-21T04:56:46.655Z,2.28
2023-04-21T04:59:54.294Z,2.25
2023-04-21T05:02:57.681Z,2.38
2023-04-21T05:06:01.047Z,2.27
2023-04-21T05:09:05.036Z,2.33
2023-04-21T05:12:08.446Z,2.50
2023-04-21T05:15:11.726Z,2.30
2023-04-21T05:18:14.998Z,2.33
2023-04-21T05:21:29.628Z,2.40
2023-04-21T05:24:34.388Z,2.63
2023-04-21T05:27:37.684Z,2.40
2023-04-21T05:30:41.574Z,3.05
2023-04-21T05:33:45.302Z,2.60
2023-04-21T05:36:49.116Z,2.43
2023-04-21T05:39:52.560Z,2.65
2023-04-21T05:42:55.849Z,2.50
2023-04-21T05:46:02.500Z,2.53
2023-04-21T05:49:05.877Z,2.20
2023-04-21T05:52:10.873Z,2.53
2023-04-21T05:55:14.579Z,2.40
2023-04-21T05:58:17.986Z,2.38
2023-04-21T06:01:21.335Z,2.20
2023-04-21T06:04:25.085Z,2.65
2023-04-21T06:07:33.527Z,3.00
2023-04-21T06:10:37.497Z,2.27
2023-04-21T06:13:43.002Z,2.60
2023-04-21T06:16:46.995Z,2.67
2023-04-21T06:19:53.272Z,2.78
2023-04-21T06:22:56.596Z,2.47
2023-04-21T06:26:07.401Z,2.60
2023-04-21T06:29:10.684Z,2.50
2023-04-21T06:32:14.073Z,2.92
2023-04-21T06:35:17.504Z,2.80
2023-04-21T06:38:21.568Z,2.67
2023-04-21T06:41:25.038Z,2.80
2023-04-21T06:44:29.256Z,2.25
2023-04-21T06:47:34.191Z,2.38
2023-04-21T06:50:37.719Z,3.40
2023-04-21T06:53:41.032Z,2.90
2023-04-21T06:56:44.276Z,2.60
2023-04-21T06:59:47.570Z,3.25
2023-04-21T07:02:51.361Z,2.28
2023-04-21T07:05:55.202Z,2.80
2023-04-21T07:08:58.763Z,2.50
2023-04-21T07:12:27.291Z,1.90
2023-04-21T07:15:31.175Z,2.85
2023-04-21T07:18:34.793Z,2.53
2023-04-21T07:21:38.367Z,2.60
2023-04-21T07:24:41.658Z,3.03
2023-04-21T07:27:44.948Z,2.50
2023-04-21T07:30:49.357Z,2.60
2023-04-21T07:33:53.047Z,2.47
2023-04-21T07:36:56.802Z,2.55
2023-04-21T07:40:00.177Z,2.30
2023-04-21T07:43:03.577Z,2.30
2023-04-21T07:46:07.850Z,2.50
2023-04-21T07:49:11.219Z,2.85
2023-04-21T07:52:14.604Z,2.30
2023-04-21T07:55:18.251Z,2.57
2023-04-21T07:58:22.262Z,2.40
2023-04-21T08:01:25.649Z,2.90
2023-04-21T08:04:29.440Z,2.20
2023-04-21T08:07:32.910Z,2.40
2023-04-21T08:10:39.250Z,2.40
2023-04-21T08:13:42.859Z,1.63
2023-04-21T08:16:46.348Z,1.77
2023-04-21T08:19:49.919Z,2.20
2023-04-21T08:22:53.334Z,2.22
2023-04-21T08:25:56.788Z,2.17
2023-04-21T08:29:04.045Z,1.77
2023-04-21T08:32:11.525Z,1.92
2023-04-21T08:35:14.961Z,1.75
2023-04-21T08:38:18.496Z,1.80
2023-04-21T08:41:23.054Z,1.93
2023-04-21T08:44:27.163Z,1.80
2023-04-21T08:47:32.356Z,1.60
2023-04-21T08:50:36.791Z,1.50
2023-04-21T08:53:41.793Z,1.80
2023-04-21T08:56:55.228Z,1.80
2023-04-21T09:00:02.289Z,1.60
2023-04-21T09:03:19.396Z,1.85
2023-04-21T09:06:43.939Z,1.60
2023-04-21T09:09:54.860Z,1.40
2023-04-21T09:12:58.145Z,1.70
2023-04-21T09:16:06.550Z,1.47
2023-04-21T09:19:18.232Z,1.70
2023-04-21T09:22:27.029Z,1.50
2023-04-21T09:25:33.600Z,1.40
2023-04-21T09:28:36.978Z,1.60
2023-04-21T09:31:40.544Z,1.63
2023-04-21T09:34:44.891Z,1.60
2023-04-21T09:37:48.679Z,1.45
2023-04-21T09:41:01.273Z,1.42
2023-04-21T09:44:16.635Z,1.50
2023-04-21T09:47:21.933Z,1.33
2023-04-21T09:51:07.154Z,1.75
2023-04-21T09:53:53.241Z,1.30
2023-04-21T09:56:58.731Z,1.20
2023-04-21T10:00:12.098Z,1.37
2023-04-21T10:03:18.443Z,1.40
2023-04-21T10:06:22.100Z,1.40
2023-04-21T10:09:31.687Z,1.63
2023-04-21T10:12:35.252Z,1.23
2023-04-21T10:15:42.473Z,1.37
2023-04-21T10:18:46.804Z,0.90
2023-04-21T10:21:50.811Z,1.05
2023-04-21T10:24:57.068Z,0.70
2023-04-21T10:28:01.005Z,1.10
2023-04-21T10:31:26.580Z,0.83
2023-04-21T10:34:34.751Z,0.80
2023-04-21T10:37:38.073Z,1.20
2023-04-21T10:40:44.554Z,1.00
2023-04-21T10:43:50.731Z,0.85
2023-04-21T10:46:54.781Z,0.80
2023-04-21T10:49:59.274Z,1.40
2023-04-21T10:53:11.400Z,1.30
2023-04-21T10:56:14.970Z,1.30
2023-04-21T10:59:21.581Z,1.25
2023-04-21T11:02:25.313Z,1.40
2023-04-21T11:05:29.687Z,1.40
2023-04-21T11:08:54.542Z,1.40
2023-04-21T11:12:20.548Z,1.50
2023-04-21T11:15:23.950Z,1.55
2023-04-21T11:18:52.137Z,1.50
2023-04-21T11:21:55.655Z,1.57
2023-04-21T11:24:59.899Z,1.48
2023-04-21T11:28:04.623Z,1.50
2023-04-21T11:31:07.975Z,1.83
2023-04-21T11:34:11.637Z,1.60
2023-04-21T11:37:28.000Z,1.60
2023-04-21T11:40:44.020Z,1.73
2023-04-21T11:43:47.455Z,1.63
2023-04-21T11:46:50.851Z,1.30
2023-04-21T11:49:59.363Z,1.40
2023-04-21T11:53:03.562Z,1.33
2023-04-21T11:56:06.946Z,1.40
2023-04-21T11:59:12.490Z,1.20
2023-04-21T12:02:26.662Z,1.70
2023-04-21T12:05:37.197Z,1.23
2023-04-21T12:08:41.362Z,1.50
2023-04-21T12:11:49.074Z,1.20
2023-04-21T12:14:53.260Z,1.15
2023-04-21T12:17:56.714Z,1.40
2023-04-21T12:21:03.210Z,1.60
2023-04-21T12:24:06.754Z,1.80
2023-04-21T12:27:10.340Z,1.88
2023-04-21T12:30:14.143Z,1.98
2023-04-21T12:33:17.470Z,1.70
2023-04-21T12:36:20.767Z,1.80
2023-04-21T12:39:24.216Z,1.40
2023-04-21T12:42:27.572Z,1.58
2023-04-21T12:45:32.638Z,1.85
2023-04-21T12:48:36.122Z,1.52
2023-04-21T12:51:39.667Z,1.63
2023-04-21T12:54:44.752Z,1.50
2023-04-21T12:57:48.103Z,2.00
2023-04-21T13:00:51.437Z,2.00
2023-04-21T13:03:54.836Z,1.98
2023-04-21T13:07:00.790Z,1.60
2023-04-21T13:10:07.028Z,1.80
2023-04-21T13:13:10.616Z,1.80
2023-04-21T13:16:13.934Z,1.67
2023-04-21T13:19:17.802Z,1.70
2023-04-21T13:22:21.344Z,1.60
2023-04-21T13:25:24.583Z,2.00
2023-04-21T13:28:29.155Z,1.88
2023-04-21T13:31:32.693Z,1.80
2023-04-21T13:34:36.701Z,1.85
2023-04-21T13:37:40.715Z,2.40
2023-04-21T13:40:45.835Z,2.30
2023-04-21T13:43:49.906Z,2.10
2023-04-21T13:46:54.174Z,2.15
2023-04-21T13:49:57.659Z,1.92
2023-04-21T13:53:00.984Z,2.37
2023-04-21T13:56:04.493Z,2.33
2023-04-21T13:59:07.877Z,2.15
2023-04-21T14:02:11.332Z,2.28
2023-04-21T14:05:14.687Z,2.40
2023-04-21T14:08:18.136Z,2.33
2023-04-21T14:11:21.970Z,2.60
2023-04-21T14:14:37.758Z,2.60
2023-04-21T14:17:43.181Z,2.85
2023-04-21T14:20:46.640Z,2.78
2023-04-21T14:23:49.976Z,2.50
2023-04-21T14:26:53.338Z,3.07
2023-04-21T14:29:59.246Z,2.78
2023-04-21T14:33:03.035Z,2.92
2023-04-21T14:36:07.018Z,3.00
2023-04-21T14:39:11.233Z,2.97
2023-04-21T14:42:14.494Z,2.33
2023-04-21T14:45:18.073Z,2.15
2023-04-21T14:48:21.940Z,2.65
2023-04-21T14:51:25.837Z,2.80
2023-04-21T14:54:29.251Z,2.60
2023-04-21T14:57:32.428Z,2.40
2023-04-21T15:00:36.699Z,2.63
2023-04-21T15:03:40.157Z,2.58
2023-04-21T15:06:43.489Z,3.33
2023-04-21T15:09:48.662Z,2.30
2023-04-21T15:12:52.011Z,2.40
2023-04-21T15:15:55.321Z,2.30
2023-04-21T15:18:58.670Z,2.90
2023-04-21T15:22:02.652Z,2.42
2023-04-21T15:25:06.246Z,3.20
2023-04-21T15:28:10.046Z,2.30
2023-04-21T15:31:13.440Z,2.45
2023-04-21T15:34:16.848Z,2.83
2023-04-21T15:37:25.508Z,2.28
2023-04-21T15:40:29.360Z,2.60
2023-04-21T15:43:33.200Z,2.77
2023-04-21T15:46:36.675Z,2.92
2023-04-21T15:49:39.968Z,2.85
2023-04-21T15:52:49.513Z,2.70
2023-04-21T15:55:52.786Z,2.93
2023-04-21T15:58:56.943Z,2.90
2023-04-21T16:02:00.341Z,3.42
2023-04-21T16:05:04.822Z,2.92
2023-04-21T16:08:08.333Z,2.70
2023-04-21T16:11:12.066Z,3.03
2023-04-21T16:14:16.600Z,3.77
2023-04-21T16:17:19.924Z,2.90
2023-04-21T16:20:24.174Z,3.00
2023-04-21T16:23:28.142Z,2.97
2023-04-21T16:26:33.227Z,3.07
2023-04-21T16:29:36.684Z,2.83
2023-04-21T16:32:39.989Z,2.97
2023-04-21T16:35:43.359Z,4.00
2023-04-21T16:38:46.652Z,3.70
2023-04-21T16:41:50.169Z,3.90
2023-04-21T16:44:58.961Z,3.17
2023-04-21T16:48:07.508Z,3.40
2023-04-21T16:51:11.036Z,3.35
2023-04-21T16:54:18.707Z,3.50
2023-04-21T16:57:24.560Z,3.20
2023-04-21T17:00:30.171Z,3.43
2023-04-21T17:03:34.001Z,3.42
2023-04-21T17:06:37.465Z,3.50
2023-04-21T17:09:40.909Z,3.38
2023-04-21T17:12:44.261Z,3.47
2023-04-21T17:15:47.664Z,3.50
2023-04-21T17:18:51.354Z,3.80
2023-04-21T17:21:54.675Z,4.20
2023-04-21T17:24:58.066Z,3.60
2023-04-21T17:28:01.914Z,3.40
2023-04-21T17:31:14.953Z,3.13
2023-04-21T17:34:19.204Z,3.40
2023-04-21T17:37:22.428Z,4.15
2023-04-21T17:40:26.238Z,3.30
2023-04-21T17:43:29.435Z,3.90
2023-04-21T17:46:32.808Z,3.80
2023-04-21T17:49:37.077Z,3.78
2023-04-21T17:52:41.414Z,4.13
2023-04-21T17:55:44.820Z,3.88
2023-04-21T17:58:48.495Z,4.40
2023-04-21T18:01:52.957Z,4.80
2023-04-21T18:04:56.737Z,4.80
2023-04-21T18:08:00.826Z,4.20
2023-04-21T18:11:04.272Z,4.40
2023-04-21T18:14:07.627Z,5.30
2023-04-21T18:17:11.068Z,4.70
2023-04-21T18:20:15.062Z,4.60
2023-04-21T18:23:18.167Z,5.43
2023-04-21T18:26:21.449Z,4.65
2023-04-21T18:29:25.430Z,4.30
2023-04-21T18:32:29.915Z,4.37
2023-04-21T18:35:34.107Z,5.38
2023-04-21T18:38:37.508Z,4.68
2023-04-21T18:41:40.931Z,4.63
2023-04-21T18:44:44.209Z,5.00
2023-04-21T18:47:47.563Z,4.63
2023-04-21T18:50:50.942Z,4.80
2023-04-21T18:53:54.278Z,4.70
2023-04-21T18:56:58.413Z,5.13
2023-04-21T19:00:01.748Z,5.47
2023-04-21T19:03:09.472Z,5.70
2023-04-21T19:06:12.898Z,5.00
2023-04-21T19:09:17.043Z,4.95
2023-04-21T19:12:23.395Z,5.57
2023-04-21T19:15:27.342Z,5.30
2023-04-21T19:18:30.904Z,5.00
2023-04-21T19:21:35.324Z,5.60
2023-04-21T19:24:39.020Z,5.47
2023-04-21T19:27:42.440Z,5.78
2023-04-21T19:30:45.793Z,6.13
2023-04-21T19:33:50.490Z,5.77
2023-04-21T19:36:54.290Z,5.90
2023-04-21T19:39:57.768Z,6.25
2023-04-21T19:43:01.907Z,6.15
2023-04-21T19:46:05.416Z,5.73
2023-04-21T19:49:11.508Z,5.80
2023-04-21T19:52:14.698Z,6.00
2023-04-21T19:55:21.594Z,6.13
2023-04-21T19:58:39.017Z,6.40
2023-04-21T20:01:43.827Z,6.53
2023-04-21T20:04:48.641Z,6.63
2023-04-21T20:07:51.959Z,6.57
2023-04-21T20:10:55.479Z,6.22
2023-04-21T20:13:58.712Z,5.95
2023-04-21T20:17:02.709Z,6.20
2023-04-21T20:20:07.130Z,6.20
2023-04-21T20:23:10.723Z,6.80
2023-04-21T20:26:14.134Z,6.72
2023-04-21T20:29:17.742Z,6.70
2023-04-21T20:32:24.158Z,6.20
2023-04-21T20:35:27.613Z,6.87
2023-04-21T20:38:34.408Z,6.60
2023-04-21T20:41:38.934Z,6.25
2023-04-21T20:44:43.341Z,7.22
2023-04-21T20:47:46.741Z,6.73
2023-04-21T20:50:51.489Z,6.20
2023-04-21T20:53:55.129Z,6.03
2023-04-21T20:56:58.485Z,5.93
2023-04-21T21:00:02.124Z,6.30
2023-04-21T21:03:09.945Z,6.30
2023-04-21T21:06:14.660Z,6.47
2023-04-21T21:09:19.122Z,6.35
2023-04-21T21:12:22.567Z,6.03
2023-04-21T21:15:27.075Z,5.80
2023-04-21T21:18:34.569Z,5.57
2023-04-21T21:21:37.841Z,5.70
2023-04-21T21:24:41.207Z,5.40
2023-04-21T21:27:44.455Z,5.20
2023-04-21T21:30:47.781Z,6.18
2023-04-21T21:33:51.150Z,5.47
2023-04-21T21:36:54.534Z,4.80
2023-04-21T21:39:57.840Z,4.95
2023-04-21T21:43:01.065Z,4.85
2023-04-21T21:46:06.236Z,5.22
2023-04-21T21:49:10.439Z,4.70
2023-04-21T21:52:15.069Z,5.20
2023-04-21T21:55:18.317Z,5.20
2023-04-21T21:58:21.754Z,4.80
2023-04-21T22:01:25.105Z,4.80
2023-04-21T22:04:28.568Z,5.23
2023-04-21T22:07:32.166Z,6.23
2023-04-21T22:10:35.938Z,5.55
2023-04-21T22:13:39.140Z,5.60
2023-04-21T22:16:42.962Z,5.32
2023-04-21T22:19:46.891Z,5.60
2023-04-21T22:22:50.176Z,6.57
2023-04-21T22:25:53.484Z,6.03
2023-04-21T22:28:56.859Z,5.50
2023-04-21T22:32:00.449Z,5.88
2023-04-21T22:35:04.896Z,5.43
2023-04-21T22:38:08.180Z,5.97
2023-04-21T22:41:11.545Z,5.45
2023-04-21T22:44:14.860Z,5.70
2023-04-21T22:47:18.124Z,5.32
2023-04-21T22:50:23.090Z,5.53
2023-04-21T22:53:26.335Z,5.97
2023-04-21T22:56:31.075Z,5.57
2023-04-21T22:59:34.293Z,5.30
2023-04-21T23:02:38.113Z,5.68
2023-04-21T23:05:42.254Z,5.40
2023-04-21T23:08:45.642Z,5.67
2023-04-21T23:11:49.051Z,5.47
2023-04-21T23:14:52.350Z,5.15
2023-04-21T23:17:55.577Z,5.80
2023-04-21T23:20:58.962Z,5.60
2023-04-21T23:24:02.283Z,5.35
2023-04-21T23:27:05.705Z,5.80
2023-04-21T23:30:09.678Z,5.30
2023-04-21T23:33:13.174Z,5.53
2023-04-21T23:36:16.545Z,6.10
2023-04-21T23:39:21.587Z,5.72
2023-04-21T23:42:24.849Z,5.75
2023-04-21T23:45:28.398Z,6.15
2023-04-21T23:48:31.657Z,5.47
